Columbus Metropolitan Airport
KCSG : now visible

Airfield :











YOU CAN JOIN US ON...

 
LOGIN :

Register | Disclaimer

   EN    FR    IT 

 









Legend :    VFR   Marginal VFR   IFR   Intensive IFR   Very Intensive IFR
Visi :
Ceiling :
>= 8 km
>= 3000ft
5 to 8 km
1000 to 3000 ft
1500m to 5 km
500 to 1000 ft
800 to 1500m
200 to 500 ft
< 800m
< 200 ft
Symbols :   Thunderstorms  Fog  Heavy snow  Heavy precipitations  Wind > 20 kt






- Airport Elevation : 397 ft
- IATA code : CSG


KCSG - Columbus Metropolitan

CURRENT METAR :
  • 021651Z 00000KT 10SM BKN036 BKN043 OVC050 31/22 A3000 RMK AO2 SLP151 T03060217

EXPIRED METARs :
  • 021551Z 00000KT 10SM CLR 29/22 A3002 RMK AO2 SLP159 T02890217
  • 021451Z 00000KT 10SM CLR 28/21 A3002 RMK AO2 SLP159 T02830211 51006

TAF KCSG
Valid from the 02 at 12:00 until the 03 at 12:00 UTC


021127Z 0212/0312 00000KT P6SM SCT250
FM021600 VRB03KT P6SM BKN035
FM021900 36005KT P6SM VCSH BKN035
PROB30 0222/0304 5SM TSRA BKN025CB
FM030600 00000KT 5SM BR OVC015
FM030900 00000KT 6SM BR OVC008
KZTL FIR / North America



MET'MAP, your aeronautical weather chart ! - Copyright ORBIFLY December 2007 - Disclaimer

ORBIFLY MET'MAP TEAM :

Programming & Development : Alexandra Zaïnal
Concept & original design : Baudouin d'Aumeries
Assistance for programming : Marc-Olivier Méhu
Technical & hardware support : Manuel Goepfert

Contact : metmap@orbifly.com




SOURCES & CREDITS :

   NOAA       Earth
Advisory